Time;durP1;ratioP1;P1;durP2;ratioP2;P2;SDS_P1;SDS_P2;PMS_P1;PMS_P2;Temp;Humidity;BMP_temperature;BMP_pressure;BME280_temperature;BME280_humidity;BME280_pressure;Samples;Min_cycle;Max_cycle;Signal;HPM_P1;HPM_P2
2023/06/21 00:00:47;;;;;;;20.80;10.43;;;18.00;99.90;17.50;100443;;;;583388;242;24059;-78
2023/06/21 00:03:18;;;;;;;14.40;10.47;;;18.10;99.90;17.60;100439;;;;583797;242;24043;-78
2023/06/21 00:05:43;;;;;;;11.43;9.27;;;18.10;99.90;17.60;100447;;;;584999;241;24131;-79
2023/06/21 00:08:12;;;;;;;16.33;9.93;;;18.20;99.90;17.70;100447;;;;584425;241;24078;-78
2023/06/21 00:10:39;;;;;;;17.57;10.47;;;18.20;99.90;17.70;100446;;;;584243;241;24048;-78
2023/06/21 00:13:06;;;;;;;12.60;10.37;;;18.30;99.90;17.70;100442;;;;584213;241;24057;-79
2023/06/21 00:15:38;;;;;;;14.60;9.90;;;18.30;99.90;17.80;100439;;;;584094;241;24005;-78
2023/06/21 00:18:02;;;;;;;14.87;9.97;;;18.30;99.90;17.80;100426;;;;583542;241;24039;-78
2023/06/21 00:20:30;;;;;;;15.57;9.47;;;18.40;99.90;17.90;100417;;;;583833;241;24023;-78
2023/06/21 00:22:58;;;;;;;14.20;9.17;;;18.40;99.90;17.90;100422;;;;583842;242;24041;-78
2023/06/21 00:25:26;;;;;;;13.40;9.97;;;18.40;99.90;17.90;100427;;;;583596;242;24004;-80
2023/06/21 00:27:54;;;;;;;16.37;9.87;;;18.50;99.90;18.00;100424;;;;583773;242;24058;-80
2023/06/21 00:30:22;;;;;;;10.70;8.77;;;18.50;99.90;18.00;100420;;;;583677;242;24066;-79
2023/06/21 00:32:50;;;;;;;13.73;9.73;;;18.50;99.90;18.00;100418;;;;583569;242;24055;-80
2023/06/21 00:35:18;;;;;;;14.47;9.87;;;18.60;99.90;18.00;100419;;;;583664;242;24029;-78
2023/06/21 00:37:46;;;;;;;11.20;9.37;;;18.60;99.90;18.10;100415;;;;583676;242;24070;-78
2023/06/21 00:40:14;;;;;;;12.03;9.20;;;18.70;99.90;18.10;100417;;;;583962;242;24032;-78
2023/06/21 00:42:41;;;;;;;11.63;8.57;;;18.70;99.90;18.10;100422;;;;583849;242;24052;-78
2023/06/21 00:45:09;;;;;;;14.30;9.43;;;18.70;99.90;18.20;100418;;;;583785;242;24079;-81
2023/06/21 00:47:40;;;;;;;12.10;8.93;;;18.80;99.90;18.20;100414;;;;583488;242;24090;-78
2023/06/21 00:50:10;;;;;;;15.03;9.03;;;18.80;99.90;18.20;100416;;;;583689;242;24034;-79
2023/06/21 00:52:37;;;;;;;11.67;9.43;;;18.80;99.90;18.20;100419;;;;583264;242;26366;-78
2023/06/21 00:55:06;;;;;;;12.50;8.90;;;18.80;99.90;18.30;100420;;;;583514;242;24050;-78
2023/06/21 00:57:34;;;;;;;14.80;10.13;;;18.80;99.90;18.30;100411;;;;588309;240;24063;-79
2023/06/21 00:59:59;;;;;;;14.38;11.12;;;18.80;99.90;18.30;100411;;;;578263;242;35059;-78
2023/06/21 01:02:27;;;;;;;14.20;10.00;;;18.90;99.90;18.30;100408;;;;583357;242;24120;-78
2023/06/21 01:04:59;;;;;;;13.20;8.73;;;18.90;99.90;18.30;100411;;;;583839;242;24025;-77
2023/06/21 01:07:39;;;;;;;9.43;8.60;;;18.90;99.90;18.40;100418;;;;583573;242;24079;-78
2023/06/21 01:10:14;;;;;;;11.73;8.97;;;18.90;99.90;18.40;100413;;;;583100;242;23056;-78
2023/06/21 01:12:56;;;;;;;11.57;9.10;;;18.90;99.90;18.40;100416;;;;583482;242;23036;-79
2023/06/21 01:15:24;;;;;;;11.77;8.00;;;18.90;99.90;18.40;100421;;;;582942;240;24065;-78
2023/06/21 01:17:52;;;;;;;14.52;10.98;;;18.90;99.90;18.40;100414;;;;579726;241;35040;-79
2023/06/21 01:20:24;;;;;;;10.60;9.27;;;19.00;99.90;18.40;100412;;;;582782;241;24019;-80
2023/06/21 01:23:25;;;;;;;10.43;9.03;;;18.90;99.90;18.40;100408;;;;583840;241;24025;-79
2023/06/21 01:26:29;;;;;;;10.13;9.03;;;19.00;99.90;18.50;100404;;;;588782;241;24060;-79
2023/06/21 01:29:09;;;;;;;10.70;8.97;;;19.00;99.90;18.50;100404;;;;583258;241;24042;-79
2023/06/21 01:31:39;;;;;;;9.83;8.53;;;19.00;99.90;18.50;100402;;;;578774;241;24032;-81
2023/06/21 01:34:08;;;;;;;14.90;9.07;;;19.00;99.90;18.50;100399;;;;583566;242;25110;-80
2023/06/21 01:36:38;;;;;;;12.90;9.60;;;19.00;99.90;18.50;100395;;;;583528;242;24042;-78
2023/06/21 01:39:05;;;;;;;10.67;8.97;;;19.00;99.90;18.50;100389;;;;583575;242;24141;-78
2023/06/21 01:41:32;;;;;;;9.87;8.80;;;19.10;99.90;18.50;100388;;;;584199;242;24040;-78
2023/06/21 01:44:04;;;;;;;9.60;8.70;;;19.00;99.90;18.50;100385;;;;584466;242;24013;-79
2023/06/21 01:46:29;;;;;;;10.67;9.40;;;19.00;99.90;18.50;100390;;;;584868;242;23050;-78
2023/06/21 01:49:00;;;;;;;10.73;8.03;;;19.00;99.90;18.50;100376;;;;585027;242;24012;-79
2023/06/21 01:51:25;;;;;;;13.63;9.03;;;19.00;99.90;18.50;100384;;;;584710;242;24123;-79
2023/06/21 01:53:52;;;;;;;10.53;8.70;;;19.10;99.90;18.50;100385;;;;584700;242;24068;-79
2023/06/21 01:56:20;;;;;;;11.67;8.70;;;19.00;99.90;18.50;100382;;;;583978;242;24075;-79
2023/06/21 01:58:48;;;;;;;9.20;7.70;;;19.00;99.90;18.50;100392;;;;583530;242;24012;-79
2023/06/21 02:01:18;;;;;;;9.83;8.83;;;19.00;99.90;18.50;100392;;;;583340;242;24045;-78
2023/06/21 02:03:44;;;;;;;10.03;8.13;;;19.10;99.90;18.50;100392;;;;583079;242;24060;-79
2023/06/21 02:06:15;;;;;;;10.37;8.70;;;19.10;99.90;18.50;100387;;;;583163;242;24182;-79
2023/06/21 02:08:40;;;;;;;11.30;8.47;;;19.00;99.90;18.50;100386;;;;583079;242;25124;-78
2023/06/21 02:11:08;;;;;;;11.40;10.02;;;19.10;99.90;18.50;100400;;;;584978;242;35059;-78
2023/06/21 02:13:40;;;;;;;10.17;8.87;;;19.00;99.90;18.50;100397;;;;583535;242;24060;-79
2023/06/21 02:16:04;;;;;;;11.57;9.10;;;19.00;99.90;18.50;100401;;;;583612;242;24098;-79
2023/06/21 02:18:32;;;;;;;9.40;8.40;;;19.00;99.90;18.50;100397;;;;583803;242;24029;-78
2023/06/21 02:21:02;;;;;;;9.33;8.40;;;19.00;99.90;18.50;100403;;;;583759;242;24049;-79
2023/06/21 02:23:28;;;;;;;9.93;8.37;;;19.00;99.90;18.50;100393;;;;583407;242;24076;-80
2023/06/21 02:25:57;;;;;;;9.13;8.33;;;19.00;99.90;18.50;100397;;;;583843;242;24070;-78
2023/06/21 02:28:26;;;;;;;10.50;9.23;;;19.00;99.90;18.50;100394;;;;584822;241;24017;-76
2023/06/21 02:30:54;;;;;;;9.17;7.80;;;19.00;99.90;18.50;100392;;;;584938;241;24031;-79
2023/06/21 02:33:21;;;;;;;13.25;10.10;;;19.00;99.90;18.50;100393;;;;579546;241;35114;-78
2023/06/21 02:35:49;;;;;;;13.27;10.00;;;19.00;99.90;18.50;100388;;;;584687;241;24082;-78
2023/06/21 02:38:19;;;;;;;11.63;8.97;;;19.00;99.90;18.50;100387;;;;584286;241;23080;-80
2023/06/21 02:40:49;;;;;;;10.50;8.13;;;19.00;99.90;18.50;100383;;;;584635;241;24070;-79
2023/06/21 02:43:13;;;;;;;10.70;9.20;;;19.00;99.90;18.50;100395;;;;593379;237;24152;-79
2023/06/21 02:45:41;;;;;;;11.40;9.40;;;19.00;99.90;18.50;100388;;;;584602;242;24028;-80
2023/06/21 02:48:09;;;;;;;10.90;8.27;;;19.00;99.90;18.50;100379;;;;584376;242;24020;-80
2023/06/21 02:50:37;;;;;;;9.73;8.33;;;19.10;99.90;18.60;100379;;;;584243;242;24053;-80
2023/06/21 02:53:05;;;;;;;11.37;8.63;;;19.10;99.90;18.60;100381;;;;584180;242;24059;-82
2023/06/21 02:55:34;;;;;;;12.03;8.30;;;19.10;99.90;18.60;100387;;;;584155;242;24021;-81
2023/06/21 02:58:02;;;;;;;10.37;8.57;;;19.10;99.90;18.60;100383;;;;583982;242;24041;-82
2023/06/21 03:00:31;;;;;;;9.43;8.43;;;19.20;99.90;18.60;100384;;;;583716;242;24078;-81
2023/06/21 03:03:00;;;;;;;10.40;9.07;;;19.20;99.90;18.70;100384;;;;583901;242;24073;-82
2023/06/21 03:05:28;;;;;;;9.57;8.60;;;19.20;99.90;18.70;100381;;;;583424;242;24117;-80
2023/06/21 03:08:01;;;;;;;17.40;9.70;;;19.20;99.90;18.70;100385;;;;583295;242;24064;-81
2023/06/21 03:10:24;;;;;;;14.90;9.47;;;19.30;99.90;18.80;100381;;;;583483;242;24031;-81
2023/06/21 03:12:55;;;;;;;11.37;8.10;;;19.30;99.90;18.80;100389;;;;583793;242;23120;-79
2023/06/21 03:15:20;;;;;;;9.80;8.80;;;19.30;99.90;18.80;100379;;;;590808;240;24056;-80
2023/06/21 03:17:49;;;;;;;12.73;8.73;;;19.40;99.90;18.80;100384;;;;583773;242;24020;-81
2023/06/21 03:20:17;;;;;;;11.50;9.77;;;19.40;99.90;18.90;100390;;;;583831;242;24033;-78
2023/06/21 03:22:45;;;;;;;11.03;8.93;;;19.40;99.90;18.90;100384;;;;583799;242;24053;-79
2023/06/21 03:25:13;;;;;;;19.27;9.40;;;19.50;99.90;19.00;100386;;;;583802;242;24009;-78
2023/06/21 03:27:45;;;;;;;21.57;9.13;;;19.60;99.90;19.10;100376;;;;583770;242;24018;-80
2023/06/21 03:30:13;;;;;;;14.43;8.67;;;19.60;99.90;19.10;100374;;;;583628;242;24080;-78
2023/06/21 03:32:50;;;;;;;15.00;9.17;;;19.70;99.90;19.20;100370;;;;582024;242;24113;-78
2023/06/21 03:35:09;;;;;;;13.93;8.93;;;19.70;99.90;19.30;100370;;;;583308;242;24074;-80
2023/06/21 03:37:36;;;;;;;16.10;10.38;;;19.80;99.90;19.40;100367;;;;578902;242;35011;-80
2023/06/21 03:40:08;;;;;;;13.50;9.80;;;19.80;99.90;19.50;100362;;;;584638;241;24019;-79
2023/06/21 03:42:32;;;;;;;13.87;9.30;;;20.00;99.90;19.50;100367;;;;584792;241;24086;-79
2023/06/21 03:45:00;;;;;;;13.90;10.70;;;20.10;99.90;19.70;100369;;;;579968;241;34945;-80
2023/06/21 03:47:28;;;;;;;9.70;8.70;;;20.20;99.90;19.90;100368;;;;585315;241;24070;-79
2023/06/21 03:49:57;;;;;;;10.67;8.67;;;20.40;99.90;20.20;100369;;;;584923;241;23058;-81
2023/06/21 03:52:24;;;;;;;8.93;8.03;;;20.70;99.90;20.70;100377;;;;585259;241;24035;-80
2023/06/21 03:54:52;;;;;;;9.97;8.87;;;21.10;99.90;21.00;100372;;;;584826;241;24038;-81
2023/06/21 03:57:20;;;;;;;9.70;7.90;;;21.40;99.90;21.40;100374;;;;584164;238;23037;-82
2023/06/21 03:59:49;;;;;;;9.77;7.97;;;22.10;99.90;21.70;100373;;;;583737;242;24086;-79
2023/06/21 04:02:18;;;;;;;9.03;8.13;;;22.30;99.90;21.70;100362;;;;583866;242;24059;-80
2023/06/21 04:04:46;;;;;;;11.07;8.53;;;22.30;99.90;21.70;100367;;;;583578;242;24016;-79
2023/06/21 04:07:18;;;;;;;9.80;8.82;;;22.30;99.90;21.60;100382;;;;578577;242;35079;-80
2023/06/21 04:09:42;;;;;;;7.97;7.27;;;22.20;99.90;21.50;100374;;;;583010;242;24089;-81
2023/06/21 04:12:11;;;;;;;8.87;7.97;;;22.10;99.90;21.50;100373;;;;584303;242;24093;-79
2023/06/21 04:14:39;;;;;;;8.87;7.93;;;22.10;99.90;21.50;100370;;;;583993;242;24018;-79
2023/06/21 04:17:07;;;;;;;9.60;7.97;;;22.00;99.90;21.60;100369;;;;583840;242;24052;-79
2023/06/21 04:19:35;;;;;;;8.40;7.30;;;22.10;99.90;21.50;100366;;;;583852;242;24023;-79
2023/06/21 04:22:03;;;;;;;9.63;7.60;;;22.10;99.90;21.50;100369;;;;583790;238;24038;-79
2023/06/21 04:24:34;;;;;;;12.70;7.33;;;22.00;99.90;21.40;100369;;;;583956;242;24058;-79
2023/06/21 04:26:59;;;;;;;8.77;7.47;;;22.00;99.90;21.40;100362;;;;583833;241;24034;-78
2023/06/21 04:29:27;;;;;;;9.07;7.33;;;22.00;99.90;21.50;100362;;;;584078;242;24071;-81
2023/06/21 04:31:55;;;;;;;8.70;7.80;;;21.90;99.90;21.50;100357;;;;583844;242;24067;-79
2023/06/21 04:34:27;;;;;;;9.10;8.18;;;21.90;99.90;21.50;100367;;;;578768;242;45890;-80
2023/06/21 04:36:50;;;;;;;8.83;8.03;;;22.00;99.90;21.60;100361;;;;583454;242;24017;-79
2023/06/21 04:39:21;;;;;;;8.57;7.30;;;22.10;99.90;21.70;100363;;;;584010;242;24017;-79
2023/06/21 04:41:51;;;;;;;9.17;7.40;;;22.20;99.90;21.70;100366;;;;583797;242;24064;-79
2023/06/21 04:44:17;;;;;;;8.33;7.57;;;22.10;99.90;21.80;100369;;;;583931;242;24093;-78
2023/06/21 04:46:49;;;;;;;8.40;7.30;;;22.20;99.90;21.80;100360;;;;583547;242;24080;-80
2023/06/21 04:49:19;;;;;;;9.33;7.80;;;22.40;99.90;21.90;100365;;;;583338;242;24016;-78
2023/06/21 04:51:43;;;;;;;7.50;6.83;;;22.40;99.90;22.10;100371;;;;584480;241;24148;-80
2023/06/21 04:54:11;;;;;;;8.80;7.00;;;22.60;99.90;22.30;100361;;;;584472;241;24083;-79
2023/06/21 04:56:39;;;;;;;7.97;7.17;;;22.80;99.90;22.50;100356;;;;584363;241;24023;-79
2023/06/21 04:59:08;;;;;;;9.50;7.60;;;22.90;99.90;22.60;100354;;;;584134;241;24046;-79
2023/06/21 05:01:35;;;;;;;9.50;7.57;;;23.20;99.90;22.70;100355;;;;584255;241;24007;-78
2023/06/21 05:04:03;;;;;;;12.67;8.70;;;23.20;99.90;22.70;100348;;;;584255;241;24043;-79
2023/06/21 05:06:31;;;;;;;9.57;8.07;;;23.30;99.90;22.90;100345;;;;584310;241;24056;-81
2023/06/21 05:08:59;;;;;;;10.17;8.00;;;23.40;99.90;23.10;100335;;;;584126;242;24017;-79
2023/06/21 05:11:31;;;;;;;8.27;7.47;;;23.60;99.90;23.30;100342;;;;583633;242;24078;-80
2023/06/21 05:13:55;;;;;;;11.13;8.07;;;23.80;99.90;23.60;100348;;;;583250;242;24011;-78
2023/06/21 05:16:25;;;;;;;8.37;7.57;;;24.00;99.90;23.70;100342;;;;583657;242;24033;-82
2023/06/21 05:18:51;;;;;;;12.73;8.97;;;24.10;99.90;23.60;100334;;;;583579;242;24017;-80
2023/06/21 05:21:18;;;;;;;9.10;7.33;;;24.20;99.90;23.70;100333;;;;583721;242;24057;-80
2023/06/21 05:23:46;;;;;;;9.83;7.93;;;24.20;99.90;23.80;100346;;;;583604;242;24075;-77
2023/06/21 05:26:14;;;;;;;9.37;7.37;;;24.30;99.90;24.00;100342;;;;583759;242;23051;-78
2023/06/21 05:28:42;;;;;;;10.83;8.03;;;24.50;99.90;24.30;100335;;;;583422;242;24078;-79
2023/06/21 05:31:11;;;;;;;10.33;8.30;;;25.30;99.90;24.90;100322;;;;583375;242;24050;-78
2023/06/21 05:33:40;;;;;;;8.63;7.83;;;26.00;99.90;25.60;100340;;;;583389;242;23046;-80
2023/06/21 05:36:09;;;;;;;9.03;8.23;;;25.90;99.90;26.50;100336;;;;583494;242;23082;-79
2023/06/21 05:38:35;;;;;;;13.50;8.70;;;26.80;99.90;27.50;100340;;;;583264;242;23057;-79
2023/06/21 05:41:04;;;;;;;11.93;8.90;;;29.00;99.90;28.70;100346;;;;583313;242;25078;-81
2023/06/21 05:43:32;;;;;;;8.40;7.17;;;28.90;99.90;29.70;100342;;;;583748;242;23143;-79
2023/06/21 05:46:00;;;;;;;11.00;7.90;;;30.10;99.90;31.10;100335;;;;583754;242;24111;-78
2023/06/21 05:48:29;;;;;;;9.85;8.70;;;31.50;99.90;32.80;100349;;;;583687;242;23086;-80
2023/06/21 05:50:56;;;;;;;11.00;9.25;;;33.10;95.30;34.40;100338;;;;583791;242;23047;-79
2023/06/21 05:53:24;;;;;;;12.57;8.75;;;34.70;89.90;35.50;100344;;;;583829;242;23043;-81
2023/06/21 05:55:54;;;;;;;9.65;8.68;;;35.90;80.80;36.40;100338;;;;583722;242;23026;-79
2023/06/21 05:58:20;;;;;;;10.63;8.25;;;36.90;74.30;37.10;100335;;;;583345;242;23080;-81
2023/06/21 06:00:51;;;;;;;12.35;8.32;;;37.60;68.40;38.00;100335;;;;583744;242;24044;-78
2023/06/21 06:03:15;;;;;;;10.45;8.98;;;38.40;63.50;38.40;100339;;;;584718;241;23039;-80
2023/06/21 06:05:43;;;;;;;9.00;8.15;;;38.90;60.70;38.80;100333;;;;579898;241;45948;-81
2023/06/21 06:08:11;;;;;;;15.63;9.85;;;39.40;59.40;39.00;100333;;;;584356;241;23036;-80
2023/06/21 06:10:39;;;;;;;9.23;8.43;;;39.70;57.70;38.90;100338;;;;584627;241;24121;-82
2023/06/21 06:13:07;;;;;;;9.57;8.73;;;39.70;57.90;38.90;100338;;;;583960;241;23025;-83
2023/06/21 06:15:35;;;;;;;19.40;9.27;;;39.70;56.80;39.50;100350;;;;583931;241;23030;-81
2023/06/21 06:18:03;;;;;;;8.45;7.75;;;40.10;56.60;40.00;100353;;;;584078;237;23081;-82
2023/06/21 06:20:31;;;;;;;8.90;7.85;;;40.60;55.30;40.40;100342;;;;583866;242;23031;-79
2023/06/21 06:22:59;;;;;;;21.98;9.27;;;41.00;54.80;41.00;100347;;;;583670;242;23165;-81
2023/06/21 06:25:27;;;;;;;14.82;10.38;;;41.60;52.00;40.90;100345;;;;583764;242;23041;-80
2023/06/21 06:27:56;;;;;;;12.70;9.25;;;41.80;52.00;41.10;100338;;;;583679;242;23055;-81
2023/06/21 06:30:24;;;;;;;10.20;9.30;;;41.70;51.90;41.90;100340;;;;583860;242;23070;-82
2023/06/21 06:32:52;;;;;;;9.63;8.88;;;42.30;50.80;42.50;100351;;;;583812;242;23081;-81
2023/06/21 06:35:20;;;;;;;10.10;9.20;;;43.00;50.20;43.20;100345;;;;584037;242;23068;-82
2023/06/21 06:37:48;;;;;;;10.68;9.77;;;43.50;48.40;42.80;100351;;;;583858;242;23041;-82
2023/06/21 06:40:16;;;;;;;12.98;8.95;;;43.50;48.40;43.00;100344;;;;583248;242;23093;-83
2023/06/21 06:42:44;;;;;;;11.35;8.88;;;43.60;48.50;43.40;100341;;;;583657;242;23069;-84
2023/06/21 06:45:14;;;;;;;10.10;9.00;;;43.90;48.10;44.30;100343;;;;583441;242;23049;-81
2023/06/21 06:47:42;;;;;;;9.80;8.80;;;44.70;47.50;45.20;100341;;;;583619;242;23058;-82
2023/06/21 06:50:14;;;;;;;11.57;9.30;;;45.50;45.90;45.90;100331;;;;583453;242;23038;-82
2023/06/21 06:52:38;;;;;;;9.55;8.65;;;46.20;45.20;46.50;100335;;;;582801;242;24060;-83
2023/06/21 06:55:09;;;;;;;10.00;9.15;;;46.80;43.80;46.70;100337;;;;583491;242;23113;-83
2023/06/21 06:57:36;;;;;;;10.15;9.25;;;47.20;43.70;47.20;100335;;;;590370;239;24110;-83
2023/06/21 07:00:05;;;;;;;15.50;9.48;;;47.60;43.20;47.50;100320;;;;583639;242;23025;-83
2023/06/21 07:02:30;;;;;;;10.18;9.25;;;47.90;43.00;48.10;100317;;;;583551;242;23050;-84
2023/06/21 07:04:58;;;;;;;10.88;9.73;;;48.30;41.40;47.70;100312;;;;583822;242;23072;-84
2023/06/21 07:07:26;;;;;;;10.05;8.80;;;48.20;41.10;47.80;100316;;;;583853;242;23078;-82
2023/06/21 07:09:54;;;;;;;17.48;9.55;;;48.20;41.30;48.10;100324;;;;583864;242;23039;-81
2023/06/21 07:12:22;;;;;;;10.85;9.93;;;48.50;41.50;48.10;100323;;;;583407;242;23039;-81
2023/06/21 07:14:53;;;;;;;9.90;9.30;;;48.60;40.60;48.20;100316;;;;584494;241;23037;-84
2023/06/21 07:17:23;;;;;;;21.10;9.90;;;48.50;40.50;48.10;100320;;;;584508;241;23053;-85
2023/06/21 07:19:51;;;;;;;17.35;8.88;;;48.60;40.80;48.20;100332;;;;584094;241;23017;-83
2023/06/21 07:22:15;;;;;;;9.88;9.10;;;48.60;41.00;48.50;100332;;;;583919;241;23053;-84
2023/06/21 07:24:43;;;;;;;10.95;9.88;;;48.90;41.10;48.70;100334;;;;584114;241;23059;-82
2023/06/21 07:27:11;;;;;;;10.70;9.65;;;49.20;40.80;48.00;100337;;;;578946;241;34982;-84
2023/06/21 07:29:39;;;;;;;10.73;9.65;;;48.80;40.70;47.90;100335;;;;584128;241;23014;-83
2023/06/21 07:32:07;;;;;;;10.68;9.90;;;48.50;41.00;47.90;100339;;;;584014;242;23042;-82
2023/06/21 07:34:35;;;;;;;10.93;9.48;;;48.40;41.10;47.60;100345;;;;584127;242;23054;-83
2023/06/21 07:37:06;;;;;;;12.00;9.98;;;48.10;41.30;47.60;100335;;;;583847;237;23065;-84
2023/06/21 07:39:30;;;;;;;12.48;11.05;;;48.10;42.00;48.00;100335;;;;583699;242;23100;-85
2023/06/21 07:42:04;;;;;;;11.27;10.48;;;48.30;41.70;48.50;100342;;;;583670;237;23029;-83
2023/06/21 07:44:26;;;;;;;12.40;11.30;;;48.80;41.20;49.00;100336;;;;578978;242;34954;-85
2023/06/21 07:46:54;;;;;;;13.65;11.27;;;49.20;40.30;49.20;100338;;;;583860;242;23040;-83
2023/06/21 07:49:22;;;;;;;16.10;11.40;;;49.50;39.60;49.40;100332;;;;583720;242;23022;-86
2023/06/21 07:51:50;;;;;;;13.50;10.77;;;49.70;39.50;49.50;100335;;;;583413;242;24103;-85
2023/06/21 07:54:18;;;;;;;16.73;10.90;;;49.80;39.40;49.80;100336;;;;583334;242;23043;-85
2023/06/21 07:56:46;;;;;;;12.30;10.50;;;50.10;39.60;50.40;100319;;;;583397;242;23037;-81
2023/06/21 07:59:15;;;;;;;12.27;11.25;;;50.50;38.80;50.00;100318;;;;583234;242;23172;-84
2023/06/21 08:01:43;;;;;;;12.23;11.02;;;50.00;39.50;49.30;100319;;;;583441;242;23044;-84
2023/06/21 08:04:12;;;;;;;11.80;10.70;;;49.80;39.40;49.40;100324;;;;583582;242;23033;-82
2023/06/21 08:06:41;;;;;;;13.38;10.45;;;49.60;39.40;48.90;100323;;;;583473;242;23381;-84
2023/06/21 08:09:09;;;;;;;14.38;11.55;;;49.30;39.90;48.70;100330;;;;583423;242;23064;-84
2023/06/21 08:11:38;;;;;;;13.57;10.70;;;49.40;39.70;49.10;100320;;;;583610;242;23037;-84
2023/06/21 08:14:07;;;;;;;11.32;10.13;;;49.70;39.70;49.30;100320;;;;583925;242;23070;-83
2023/06/21 08:16:35;;;;;;;11.20;10.48;;;49.60;39.60;49.40;100323;;;;583946;242;23050;-84
2023/06/21 08:19:03;;;;;;;12.30;11.20;;;49.80;39.20;49.60;100335;;;;584119;237;23045;-84
2023/06/21 08:21:30;;;;;;;10.23;9.35;;;50.00;39.10;49.40;100331;;;;583868;242;23029;-84
2023/06/21 08:24:01;;;;;;;12.05;11.05;;;50.00;39.00;49.40;100333;;;;583733;242;23077;-85
2023/06/21 08:26:26;;;;;;;17.40;11.65;;;50.00;38.70;48.70;100335;;;;584546;241;23136;-84
2023/06/21 08:28:54;;;;;;;12.07;11.18;;;49.50;38.90;48.70;100335;;;;585127;241;23014;-84
2023/06/21 08:31:26;;;;;;;14.50;11.18;;;49.30;39.40;49.00;100345;;;;584568;241;24124;-83
2023/06/21 08:33:50;;;;;;;11.98;11.02;;;49.50;38.70;48.70;100349;;;;584464;241;23038;-82
2023/06/21 08:36:28;;;;;;;;;;;;;;;;;;;;;
2023/06/21 08:38:47;;;;;;;12.25;11.00;;;48.90;39.00;48.20;100338;;;;581321;241;23074;-83
2023/06/21 08:41:18;;;;;;;11.85;10.75;;;48.90;39.00;48.50;100335;;;;584426;241;23047;-85
2023/06/21 08:43:43;;;;;;;14.30;12.98;;;49.10;39.10;48.80;100342;;;;583659;242;23044;-83
2023/06/21 08:46:11;;;;;;;12.32;11.38;;;49.30;39.40;48.00;100347;;;;583814;242;23029;-87
2023/06/21 08:48:39;;;;;;;13.75;12.27;;;48.20;39.40;47.20;100348;;;;584071;242;23041;-82
2023/06/21 08:51:08;;;;;;;17.48;11.85;;;48.30;40.30;47.70;100336;;;;584019;242;23028;-82
2023/06/21 08:53:57;;;;;;;13.70;12.43;;;48.60;39.20;48.00;100341;;;;578988;242;34946;-79
2023/06/21 08:56:22;;;;;;;13.38;12.00;;;48.60;39.20;46.10;100347;;;;584147;242;23081;-81
2023/06/21 08:58:50;;;;;;;14.85;12.55;;;47.40;39.70;44.30;100344;;;;583858;242;24071;-83
2023/06/21 09:01:18;;;;;;;14.50;12.88;;;45.90;40.90;43.40;100347;;;;583677;242;23061;-82
2023/06/21 09:03:52;;;;;;;13.73;12.48;;;44.70;42.50;43.20;100349;;;;583458;242;23086;-84
2023/06/21 09:06:22;;;;;;;17.25;12.70;;;44.10;43.50;43.20;100354;;;;583059;242;23042;-81
2023/06/21 09:08:48;;;;;;;13.68;12.65;;;43.90;43.60;41.90;100363;;;;583290;242;23096;-81
2023/06/21 09:11:16;;;;;;;22.13;13.20;;;42.90;44.50;40.90;100362;;;;583521;242;23056;-82
2023/06/21 09:13:44;;;;;;;22.87;13.30;;;41.80;45.90;40.10;100360;;;;583837;242;23066;-82
2023/06/21 09:16:11;;;;;;;15.30;13.75;;;41.00;47.20;39.30;100362;;;;584061;242;24074;-82
2023/06/21 09:18:39;;;;;;;14.35;12.85;;;40.10;48.60;38.90;100364;;;;584306;242;24123;-83
2023/06/21 09:21:11;;;;;;;13.57;12.30;;;39.20;50.30;38.70;100352;;;;583965;242;24075;-82
2023/06/21 09:23:39;;;;;;;14.60;13.40;;;39.10;50.70;38.90;100350;;;;578895;242;37887;-83
2023/06/21 09:26:10;;;;;;;14.85;12.93;;;39.20;50.90;39.30;100351;;;;583921;242;24107;-82
2023/06/21 09:28:38;;;;;;;17.80;13.13;;;39.50;50.90;40.40;100353;;;;584032;242;24073;-82
2023/06/21 09:31:05;;;;;;;28.45;12.88;;;40.50;50.30;42.30;100359;;;;583973;242;23031;-81
2023/06/21 09:33:36;;;;;;;15.73;11.55;;;44.20;45.90;44.50;100349;;;;583824;242;23091;-82
2023/06/21 09:36:06;;;;;;;14.23;11.18;;;46.70;43.50;46.90;100362;;;;583635;242;23036;-82
2023/06/21 09:38:37;;;;;;;13.05;11.65;;;46.60;43.50;48.10;100365;;;;580311;241;34958;-81
2023/06/21 09:41:02;;;;;;;12.65;11.38;;;48.20;41.00;47.20;100367;;;;584576;241;23146;-81
2023/06/21 09:43:31;;;;;;;12.70;10.60;;;47.70;41.00;46.70;100373;;;;584463;241;24081;-82
2023/06/21 09:46:02;;;;;;;12.13;11.02;;;46.20;42.00;44.60;100375;;;;584164;241;23019;-82
2023/06/21 09:48:31;;;;;;;13.13;11.88;;;44.60;43.60;43.10;100363;;;;583619;241;23054;-81
2023/06/21 09:51:00;;;;;;;16.98;12.37;;;43.10;45.40;41.70;100353;;;;584681;241;23054;-85
2023/06/21 09:53:29;;;;;;;13.70;12.50;;;43.10;45.40;41.40;100338;;;;584768;241;23086;-85
2023/06/21 09:55:55;;;;;;;13.95;12.63;;;42.30;47.10;42.00;100341;;;;584367;242;24109;-86
2023/06/21 09:58:21;;;;;;;14.57;13.32;;;42.40;47.50;43.00;100330;;;;584100;240;34976;-86
2023/06/21 10:00:53;;;;;;;14.05;12.63;;;43.30;46.90;43.00;100347;;;;584923;242;23030;-84
2023/06/21 10:03:17;;;;;;;13.35;12.10;;;43.50;46.30;42.20;100340;;;;584705;242;23039;-83
2023/06/21 10:05:57;;;;;;;13.68;12.55;;;43.00;46.30;41.40;100330;;;;584509;242;23088;-81
2023/06/21 10:08:27;;;;;;;34.97;14.55;;;42.30;47.00;41.10;100325;;;;584335;242;23061;-85
2023/06/21 10:10:56;;;;;;;24.37;11.85;;;41.80;48.20;40.90;100340;;;;584167;242;23049;-82
2023/06/21 10:13:33;;;;;;;28.35;11.40;;;41.70;48.40;40.70;100339;;;;584396;242;23057;-82
2023/06/21 10:15:58;;;;;;;12.10;10.57;;;41.40;48.30;41.10;100335;;;;584328;242;23026;-82
2023/06/21 10:18:26;;;;;;;10.85;9.98;;;41.50;47.80;40.70;100343;;;;584032;242;23091;-81
2023/06/21 10:20:57;;;;;;;10.30;9.52;;;41.30;47.90;40.20;100340;;;;583741;242;23136;-82
2023/06/21 10:23:31;;;;;;;10.50;9.70;;;40.90;48.10;39.40;100333;;;;583540;242;23068;-83
2023/06/21 10:25:56;;;;;;;9.20;8.27;;;40.20;48.70;38.70;100340;;;;584177;242;23033;-80
2023/06/21 10:28:24;;;;;;;7.93;7.25;;;39.50;49.00;37.50;100321;;;;584439;242;23145;-80
2023/06/21 10:30:55;;;;;;;8.32;7.65;;;38.50;49.10;36.80;100336;;;;573326;246;23070;-81
2023/06/21 10:33:20;;;;;;;8.45;7.47;;;37.60;50.20;36.30;100337;;;;583716;242;23052;-81
2023/06/21 10:35:50;;;;;;;16.67;7.47;;;36.90;51.30;35.90;100335;;;;573334;246;23072;-80
2023/06/21 10:38:24;;;;;;;22.20;8.43;;;36.40;52.40;35.70;100342;;;;583529;242;25153;-82
2023/06/21 10:40:52;;;;;;;23.33;8.15;;;36.10;53.10;35.70;100339;;;;583347;242;24059;-82
2023/06/21 10:43:20;;;;;;;12.43;7.90;;;36.00;53.70;35.80;100343;;;;583786;242;24066;-81
2023/06/21 10:45:51;;;;;;;15.18;7.93;;;36.00;53.90;35.90;100342;;;;584033;242;24075;-83
2023/06/21 10:48:17;;;;;;;20.37;8.27;;;36.20;54.10;36.00;100336;;;;584413;240;23086;-82
2023/06/21 10:50:45;;;;;;;18.08;8.80;;;36.30;54.10;36.10;100326;;;;585499;241;23129;-80
2023/06/21 10:53:17;;;;;;;9.15;8.15;;;36.30;53.70;36.10;100326;;;;584780;241;23045;-82
2023/06/21 10:55:46;;;;;;;12.50;8.77;;;36.30;53.90;36.00;100331;;;;579405;241;35029;-82
2023/06/21 10:58:10;;;;;;;18.90;8.35;;;36.20;54.10;35.70;100331;;;;584149;241;24067;-82
2023/06/21 11:00:38;;;;;;;16.15;8.13;;;36.00;53.80;35.60;100325;;;;584150;241;23038;-81
2023/06/21 11:03:06;;;;;;;14.48;8.43;;;35.90;54.70;35.80;100325;;;;584289;241;23060;-81
2023/06/21 11:05:34;;;;;;;9.52;8.63;;;36.00;55.20;35.80;100332;;;;584211;241;23053;-82
2023/06/21 11:08:05;;;;;;;8.80;7.75;;;36.00;55.10;36.10;100324;;;;584223;242;23055;-82